Junction, IL (62954)

2:56 PM CST on February 01, 2015 (GMT -0600)
KILHARRI2 | Change Station
CLOSE
Current Station
Personal Weather Station
Location: Harrisburg, IL
Elevation: 400 ft
Nearby Weather Stations

Elev 400 ft 37.74 °N, 88.54 °W | Updated 26 minutes ago

Mostly Cloudy
Mostly Cloudy
46.7 °F
Feels Like 43 °F
N
7.0
Wind Variable Wind from SW
Gusts 12.0 mph

Today
High -- | Low -- °F
--% Chance of Precip.
Yesterday
High -- | Low -- °F
Precip. -- in
6:57 AM 5:16 PM
Waxing Gibbous, 96% visible
Pressure 29.64 in
Visibility 4.0 miles
Clouds Scattered Clouds 500 ft
Mostly Cloudy 1000 ft
Overcast 1500 ft
Windchill 43 °F
Dew Point 46 °F
Humidity 96%
Rainfall 0.52 in
Snow Depth Not available.
UV 1 out of 12
Pollen .10 out of 12
Air Quality Not available.
Flu Activity Not available.
METAR KHSB 012035Z AUTO 24007KT 4SM -RA SCT005 BKN010 OVC015 08/08 A2964 RMK AO2 P0002 T00780078

More Conditions Fewer Conditions

Pressure 29.64 in
Visibility 4.0 miles
Clouds Scattered Clouds 500 ft
Mostly Cloudy 1000 ft
Overcast 1500 ft
Windchill 43 °F
Dew Point 46 °F
Humidity 96%
Rainfall 0.52 in
Snow Depth Not available.
UV 1 out of 12
Pollen .10 out of 12
Air Quality Not available.
Flu Activity Not available.
METAR KHSB 012035Z AUTO 24007KT 4SM -RA SCT005 BKN010 OVC015 08/08 A2964 RMK AO2 P0002 T00780078

More Conditions Fewer Conditions

10-Day Weather Forecast

Almanac

Astronomy

Feb. 01, 2015 Rise Set
Actual Time
Civil Twilight
Nautical Twilight
Astronomical Twilight
Moon
Length of Visible Light
Length of Day
Tomorrow will be .
, % of the Moon is Illuminated

Today's Extremes

State Highs State Lows

Community

WunderPhotos

Upload Photos

1,792,514 photos uploaded!

WunderBlogs® & News

Nearby

Air Quality

  Air Quality AQ Index Pollutant
Not available.

Snow Depth

Station Depth Elevation

Earthquake Activity

City Distance Mag. Time & Date
Minimum magnitude displayed is 2.5.

Coastal Water Temperatures

Place Temperature

Nearby Weather Stations